createdAt,value
2018-01-08T00:00:42.715Z,1028.03
2018-01-08T00:01:52.476Z,1028.02
2018-01-08T00:03:02.425Z,1028.02
2018-01-08T00:04:12.162Z,1028.08
2018-01-08T00:05:22.107Z,1028.02
2018-01-08T00:06:32.050Z,1028.03
2018-01-08T00:07:41.737Z,1028.01
2018-01-08T00:08:51.419Z,1028.01
2018-01-08T00:10:00.857Z,1028.01
2018-01-08T00:11:10.804Z,1028.01
2018-01-08T00:12:20.755Z,1028.02
2018-01-08T00:13:30.450Z,1028.02
2018-01-08T00:14:40.396Z,1028.01
2018-01-08T00:15:50.085Z,1028.03
2018-01-08T00:17:00.032Z,1028.01
2018-01-08T00:18:09.995Z,1027.97
2018-01-08T00:19:19.954Z,1028.06
2018-01-08T00:20:29.646Z,1028.06
2018-01-08T00:21:39.332Z,1028.09
2018-01-08T00:22:49.012Z,1028.05
2018-01-08T00:23:58.439Z,1028.05
2018-01-08T00:25:08.142Z,1028.02
2018-01-08T00:26:17.837Z,1028.02
2018-01-08T00:27:27.524Z,1028.05
2018-01-08T00:28:37.469Z,1028.07
2018-01-08T00:29:47.166Z,1028.05
2018-01-08T00:30:57.114Z,1028.05
2018-01-08T00:32:07.061Z,1028.04
2018-01-08T00:33:17.002Z,1028.07
2018-01-08T00:34:26.952Z,1028
2018-01-08T00:35:36.890Z,1028.04
2018-01-08T00:36:46.575Z,1028.06
2018-01-08T00:37:56.021Z,1028.03
2018-01-08T00:39:05.965Z,1028.03
2018-01-08T00:40:15.648Z,1028.05
2018-01-08T00:41:25.342Z,1028.07
2018-01-08T00:42:35.036Z,1028.06
2018-01-08T00:43:44.974Z,1028.1
2018-01-08T00:44:54.649Z,1028.07
2018-01-08T00:46:04.609Z,1028.07
2018-01-08T00:47:14.558Z,1028.06
2018-01-08T00:48:24.257Z,1028.05
2018-01-08T00:49:34.209Z,1028.02
2018-01-08T00:50:43.896Z,1028.08
2018-01-08T00:51:53.578Z,1028.06
2018-01-08T00:53:03.537Z,1028.05
2018-01-08T00:54:13.487Z,1027.99
2018-01-08T00:55:23.180Z,1028.03
2018-01-08T00:56:33.128Z,1028.02
2018-01-08T00:57:43.082Z,1028
2018-01-08T00:58:53.035Z,1027.99
2018-01-08T01:00:02.727Z,1027.99
2018-01-08T01:01:12.678Z,1027.99
2018-01-08T01:02:22.362Z,1027.98
2018-01-08T01:03:32.054Z,1028
2018-01-08T01:04:42.010Z,1027.96
2018-01-08T01:05:51.955Z,1027.96
2018-01-08T01:07:01.646Z,1027.93
2018-01-08T01:08:11.614Z,1027.88
2018-01-08T01:09:21.043Z,1027.93
2018-01-08T01:10:30.750Z,1027.97
2018-01-08T01:11:40.444Z,1027.95
2018-01-08T01:12:50.137Z,1027.91
2018-01-08T01:13:59.838Z,1027.99
2018-01-08T01:15:09.781Z,1027.94
2018-01-08T01:16:19.714Z,1027.94
2018-01-08T01:17:29.438Z,1027.89
2018-01-08T01:18:39.634Z,1027.91
2018-01-08T01:19:49.573Z,1027.9
2018-01-08T01:20:59.571Z,1027.9
2018-01-08T01:22:09.276Z,1027.89
2018-01-08T01:23:19.213Z,1027.93
2018-01-08T01:24:28.901Z,1027.93
2018-01-08T01:25:38.587Z,1027.87
2018-01-08T01:26:48.268Z,1027.87
2018-01-08T01:27:58.229Z,1027.93
2018-01-08T01:29:08.169Z,1027.93
2018-01-08T01:30:17.856Z,1027.92
2018-01-08T01:31:27.790Z,1027.89
2018-01-08T01:32:37.747Z,1027.91
2018-01-08T01:33:47.450Z,1027.87
2018-01-08T01:34:57.141Z,1027.87
2018-01-08T01:36:07.084Z,1027.88
2018-01-08T01:37:17.025Z,1027.89
2018-01-08T01:38:27.075Z,1027.87
2018-01-08T01:39:37.016Z,1027.87
2018-01-08T01:40:46.954Z,1027.86
2018-01-08T01:41:56.708Z,1027.87
2018-01-08T01:43:06.642Z,1027.88
2018-01-08T01:44:16.589Z,1027.91
2018-01-08T01:45:26.535Z,1027.94
2018-01-08T01:46:36.476Z,1027.91
2018-01-08T01:47:46.421Z,1027.87
2018-01-08T01:48:56.364Z,1027.9
2018-01-08T01:50:06.058Z,1027.87
2018-01-08T01:51:16.012Z,1027.84
2018-01-08T01:52:25.960Z,1027.84
2018-01-08T01:53:35.672Z,1027.82
2018-01-08T01:54:45.616Z,1027.8
2018-01-08T01:55:55.550Z,1027.82
2018-01-08T01:57:04.977Z,1027.74
2018-01-08T01:58:14.940Z,1027.83
2018-01-08T01:59:24.876Z,1027.81
2018-01-08T02:00:34.811Z,1027.85
2018-01-08T02:01:44.753Z,1027.86
2018-01-08T02:02:54.703Z,1027.87
2018-01-08T02:04:04.657Z,1027.84
2018-01-08T02:05:14.612Z,1027.87
2018-01-08T02:06:24.555Z,1027.84
2018-01-08T02:07:34.240Z,1027.86
2018-01-08T02:08:44.186Z,1027.85
2018-01-08T02:09:53.867Z,1027.85
2018-01-08T02:11:03.819Z,1027.86
2018-01-08T02:12:13.756Z,1027.85
2018-01-08T02:13:23.708Z,1027.83
2018-01-08T02:14:33.672Z,1027.81
2018-01-08T02:15:43.618Z,1027.82
2018-01-08T02:16:53.561Z,1027.84
2018-01-08T02:18:03.539Z,1027.8
2018-01-08T02:19:13.246Z,1027.81
2018-01-08T02:20:23.200Z,1027.76
2018-01-08T02:21:33.145Z,1027.77
2018-01-08T02:22:43.085Z,1027.74
2018-01-08T02:23:53.047Z,1027.74
2018-01-08T02:25:02.992Z,1027.71
2018-01-08T02:26:12.941Z,1027.75
2018-01-08T02:27:22.903Z,1027.74
2018-01-08T02:28:32.833Z,1027.77
2018-01-08T02:29:42.791Z,1027.8
2018-01-08T02:30:52.742Z,1027.77
2018-01-08T02:32:02.690Z,1027.77
2018-01-08T02:33:12.633Z,1027.78
2018-01-08T02:34:22.584Z,1027.8
2018-01-08T02:35:32.284Z,1027.73
2018-01-08T02:36:42.231Z,1027.76
2018-01-08T02:37:51.949Z,1027.78
2018-01-08T02:39:01.904Z,1027.78
2018-01-08T02:40:11.874Z,1027.77
2018-01-08T02:41:21.811Z,1027.81
2018-01-08T02:42:31.753Z,1027.79
2018-01-08T02:43:41.704Z,1027.71
2018-01-08T02:44:51.652Z,1027.7
2018-01-08T02:46:01.368Z,1027.72
2018-01-08T02:47:11.056Z,1027.76
2018-01-08T02:48:20.796Z,1027.77
2018-01-08T02:49:30.749Z,1027.75
2018-01-08T02:50:40.700Z,1027.71
2018-01-08T02:51:50.639Z,1027.71
2018-01-08T02:53:00.330Z,1027.67
2018-01-08T02:54:10.016Z,1027.7
2018-01-08T02:55:19.436Z,1027.7
2018-01-08T02:56:29.405Z,1027.68
2018-01-08T02:57:39.355Z,1027.71
2018-01-08T02:58:49.306Z,1027.73
2018-01-08T02:59:59.259Z,1027.7
2018-01-08T03:01:08.940Z,1027.72
2018-01-08T03:02:18.899Z,1027.68
2018-01-08T03:03:28.589Z,1027.69
2018-01-08T03:04:38.284Z,1027.68
2018-01-08T03:05:48.215Z,1027.68
2018-01-08T03:06:58.153Z,1027.67
2018-01-08T03:08:08.090Z,1027.67
2018-01-08T03:09:17.779Z,1027.71
2018-01-08T03:10:27.727Z,1027.68
2018-01-08T03:11:37.438Z,1027.67
2018-01-08T03:12:47.366Z,1027.66
2018-01-08T03:13:57.564Z,1027.68
2018-01-08T03:15:07.247Z,1027.67
2018-01-08T03:16:17.198Z,1027.68
2018-01-08T03:17:27.161Z,1027.72
2018-01-08T03:18:37.109Z,1027.7
2018-01-08T03:19:47.043Z,1027.72
2018-01-08T03:20:56.976Z,1027.71
2018-01-08T03:22:06.918Z,1027.72
2018-01-08T03:23:16.869Z,1027.73
2018-01-08T03:24:26.810Z,1027.78
2018-01-08T03:25:36.748Z,1027.79
2018-01-08T03:26:46.794Z,1027.77
2018-01-08T03:27:56.742Z,1027.85
2018-01-08T03:29:06.688Z,1027.82
2018-01-08T03:30:16.368Z,1027.86
2018-01-08T03:31:26.060Z,1027.87
2018-01-08T03:32:35.757Z,1027.83
2018-01-08T03:33:45.196Z,1027.87
2018-01-08T03:34:54.920Z,1027.85
2018-01-08T03:36:05.113Z,1027.85
2018-01-08T03:37:15.060Z,1027.8
2018-01-08T03:38:24.726Z,1027.79
2018-01-08T03:39:34.408Z,1027.8
2018-01-08T03:40:44.088Z,1027.79
2018-01-08T03:41:53.773Z,1027.83
2018-01-08T03:43:03.718Z,1027.81
2018-01-08T03:44:13.425Z,1027.8
2018-01-08T03:45:23.367Z,1027.79
2018-01-08T03:46:33.569Z,1027.84
2018-01-08T03:47:43.259Z,1027.88
2018-01-08T03:48:53.204Z,1027.8
2018-01-08T03:50:03.141Z,1027.86
2018-01-08T03:51:13.082Z,1027.84
2018-01-08T03:52:23.029Z,1027.83
2018-01-08T03:53:32.727Z,1027.83
2018-01-08T03:54:42.430Z,1027.83
2018-01-08T03:55:52.119Z,1027.85
2018-01-08T03:57:02.072Z,1027.87
2018-01-08T03:58:12.260Z,1027.8
2018-01-08T03:59:22.202Z,1027.82
2018-01-08T04:00:31.890Z,1027.82
2018-01-08T04:01:41.828Z,1027.81
2018-01-08T04:02:51.263Z,1027.84
2018-01-08T04:04:01.217Z,1027.93
2018-01-08T04:05:11.160Z,1027.91
2018-01-08T04:06:20.847Z,1027.9
2018-01-08T04:07:30.523Z,1027.92
2018-01-08T04:08:40.478Z,1027.88
2018-01-08T04:09:50.425Z,1027.88
2018-01-08T04:11:00.357Z,1027.92
2018-01-08T04:12:10.296Z,1027.9
2018-01-08T04:13:20.241Z,1027.87
2018-01-08T04:14:29.678Z,1027.84
2018-01-08T04:15:39.616Z,1027.8
2018-01-08T04:16:49.552Z,1027.82
2018-01-08T04:17:59.258Z,1027.77
2018-01-08T04:19:09.205Z,1027.78
2018-01-08T04:20:18.376Z,1027.82
2018-01-08T04:21:28.334Z,1027.82
2018-01-08T04:22:38.283Z,1027.76
2018-01-08T04:23:48.230Z,1027.8
2018-01-08T04:24:58.210Z,1027.88
2018-01-08T04:26:08.151Z,1027.93
2018-01-08T04:27:18.085Z,1027.97
2018-01-08T04:28:28.012Z,1028.01
2018-01-08T04:29:37.950Z,1028.01
2018-01-08T04:30:47.893Z,1028.05
2018-01-08T04:31:57.320Z,1028.03
2018-01-08T04:33:07.263Z,1028.06
2018-01-08T04:34:16.967Z,1028.07
2018-01-08T04:35:26.399Z,1028.11
2018-01-08T04:36:35.576Z,1028.06
2018-01-08T04:37:45.523Z,1028.1
2018-01-08T04:38:55.471Z,1028.1
2018-01-08T04:40:05.167Z,1028.08
2018-01-08T04:41:15.108Z,1028.08
2018-01-08T04:42:25.064Z,1028.12
2018-01-08T04:43:35.001Z,1028.16
2018-01-08T04:44:44.680Z,1028.16
2018-01-08T04:45:54.629Z,1028.15
2018-01-08T04:47:04.313Z,1028.14
2018-01-08T04:48:14.263Z,1028.18
2018-01-08T04:49:24.194Z,1028.25
2018-01-08T04:50:34.129Z,1028.18
2018-01-08T04:51:43.838Z,1028.17
2018-01-08T04:52:53.782Z,1028.15
2018-01-08T04:54:03.209Z,1028.12
2018-01-08T04:55:13.146Z,1028.13
2018-01-08T04:56:22.889Z,1028.19
2018-01-08T04:57:32.830Z,1028.22
2018-01-08T04:58:42.792Z,1028.22
2018-01-08T04:59:52.745Z,1028.26
2018-01-08T05:01:02.436Z,1028.27
2018-01-08T05:02:12.131Z,1028.28
2018-01-08T05:03:21.830Z,1028.3
2018-01-08T05:04:31.774Z,1028.37
2018-01-08T05:05:41.728Z,1028.36
2018-01-08T05:06:51.699Z,1028.37
2018-01-08T05:08:01.398Z,1028.45
2018-01-08T05:09:11.080Z,1028.44
2018-01-08T05:10:20.776Z,1028.48
2018-01-08T05:11:30.456Z,1028.44
2018-01-08T05:12:40.397Z,1028.48
2018-01-08T05:13:50.362Z,1028.5
2018-01-08T05:15:00.318Z,1028.42
2018-01-08T05:16:10.270Z,1028.4
2018-01-08T05:17:20.208Z,1028.49
2018-01-08T05:18:30.198Z,1028.47
2018-01-08T05:19:40.143Z,1028.49
2018-01-08T05:20:50.101Z,1028.56
2018-01-08T05:21:59.792Z,1028.54
2018-01-08T05:23:09.743Z,1028.52
2018-01-08T05:24:19.684Z,1028.51
2018-01-08T05:25:29.617Z,1028.52
2018-01-08T05:26:39.325Z,1028.54
2018-01-08T05:27:49.269Z,1028.54
2018-01-08T05:28:59.217Z,1028.51
2018-01-08T05:30:09.215Z,1028.54
2018-01-08T05:31:19.159Z,1028.47
2018-01-08T05:32:29.114Z,1028.51
2018-01-08T05:33:38.819Z,1028.48
2018-01-08T05:34:48.240Z,1028.49
2018-01-08T05:35:57.930Z,1028.51
2018-01-08T05:37:07.870Z,1028.5
2018-01-08T05:38:17.560Z,1028.53
2018-01-08T05:39:27.503Z,1028.53
2018-01-08T05:40:37.452Z,1028.5
2018-01-08T05:41:47.391Z,1028.52
2018-01-08T05:42:57.088Z,1028.54
2018-01-08T05:44:07.023Z,1028.57
2018-01-08T05:45:16.974Z,1028.57
2018-01-08T05:46:27.165Z,1028.59
2018-01-08T05:47:36.905Z,1028.48
2018-01-08T05:48:46.851Z,1028.51
2018-01-08T05:49:56.806Z,1028.52
2018-01-08T05:51:06.764Z,1028.55
2018-01-08T05:52:16.464Z,1028.58
2018-01-08T05:53:26.466Z,1028.6
2018-01-08T05:54:35.906Z,1028.61
2018-01-08T05:55:45.328Z,1028.62
2018-01-08T05:56:54.773Z,1028.51
2018-01-08T05:58:04.464Z,1028.62
2018-01-08T05:59:14.427Z,1028.6
2018-01-08T06:00:24.406Z,1028.64
2018-01-08T06:01:34.350Z,1028.61
2018-01-08T06:02:44.036Z,1028.61
2018-01-08T06:03:53.991Z,1028.58
2018-01-08T06:05:03.941Z,1028.57
2018-01-08T06:06:13.615Z,1028.62
2018-01-08T06:07:23.554Z,1028.59
2018-01-08T06:08:32.991Z,1028.61
2018-01-08T06:09:42.687Z,1028.59
2018-01-08T06:10:52.631Z,1028.59
2018-01-08T06:12:02.582Z,1028.54
2018-01-08T06:13:12.272Z,1028.55
2018-01-08T06:14:21.706Z,1028.59
2018-01-08T06:15:31.388Z,1028.57
2018-01-08T06:16:40.581Z,1028.58
2018-01-08T06:17:50.290Z,1028.63
2018-01-08T06:18:59.982Z,1028.59
2018-01-08T06:20:09.948Z,1028.66
2018-01-08T06:21:19.893Z,1028.67
2018-01-08T06:22:29.855Z,1028.68
2018-01-08T06:23:39.550Z,1028.74
2018-01-08T06:24:49.239Z,1028.78
2018-01-08T06:25:59.183Z,1028.75
2018-01-08T06:27:08.619Z,1028.76
2018-01-08T06:28:18.563Z,1028.75
2018-01-08T06:29:28.527Z,1028.75
2018-01-08T06:30:38.206Z,1028.74
2018-01-08T06:31:47.904Z,1028.71
2018-01-08T06:32:57.855Z,1028.63
2018-01-08T06:34:07.807Z,1028.61
2018-01-08T06:35:18.045Z,1028.62
2018-01-08T06:36:27.989Z,1028.63
2018-01-08T06:37:37.935Z,1028.63
2018-01-08T06:38:47.896Z,1028.69
2018-01-08T06:39:57.838Z,1028.66
2018-01-08T06:41:07.799Z,1028.73
2018-01-08T06:42:17.760Z,1028.69
2018-01-08T06:43:27.745Z,1028.69
2018-01-08T06:44:37.702Z,1028.68
2018-01-08T06:45:47.649Z,1028.69
2018-01-08T06:46:57.341Z,1028.74
2018-01-08T06:48:07.027Z,1028.74
2018-01-08T06:49:16.725Z,1028.75
2018-01-08T06:50:26.409Z,1028.77
2018-01-08T06:51:36.105Z,1028.74
2018-01-08T06:52:45.791Z,1028.72
2018-01-08T06:53:55.730Z,1028.74
2018-01-08T06:55:05.688Z,1028.8
2018-01-08T06:56:15.646Z,1028.79
2018-01-08T06:57:25.335Z,1028.78
2018-01-08T06:58:35.280Z,1028.77
2018-01-08T06:59:45.215Z,1028.75
2018-01-08T07:00:55.167Z,1028.77
2018-01-08T07:02:05.120Z,1028.78
2018-01-08T07:03:14.829Z,1028.81
2018-01-08T07:04:24.528Z,1028.79
2018-01-08T07:05:34.479Z,1028.84
2018-01-08T07:06:44.421Z,1028.83
2018-01-08T07:07:54.123Z,1028.83
2018-01-08T07:09:03.617Z,1028.86
2018-01-08T07:10:13.581Z,1028.87
2018-01-08T07:11:23.538Z,1028.88
2018-01-08T07:12:33.513Z,1028.89
2018-01-08T07:13:43.482Z,1028.85
2018-01-08T07:14:53.434Z,1028.88
2018-01-08T07:16:03.397Z,1028.84
2018-01-08T07:17:13.371Z,1028.79
2018-01-08T07:18:23.079Z,1028.8
2018-01-08T07:19:33.069Z,1028.78
2018-01-08T07:20:43.035Z,1028.75
2018-01-08T07:21:52.735Z,1028.71
2018-01-08T07:23:02.479Z,1028.7
2018-01-08T07:24:12.483Z,1028.69
2018-01-08T07:25:22.427Z,1028.66
2018-01-08T07:26:32.374Z,1028.7
2018-01-08T07:27:42.068Z,1028.66
2018-01-08T07:28:52.247Z,1028.69
2018-01-08T07:30:02.192Z,1028.71
2018-01-08T07:31:12.201Z,1028.73
2018-01-08T07:32:21.896Z,1028.71
2018-01-08T07:33:31.593Z,1028.7
2018-01-08T07:34:41.542Z,1028.74
2018-01-08T07:35:51.233Z,1028.79
2018-01-08T07:37:01.204Z,1028.72
2018-01-08T07:38:11.158Z,1028.71
2018-01-08T07:39:21.162Z,1028.72
2018-01-08T07:40:30.950Z,1028.72
2018-01-08T07:41:40.649Z,1028.75
2018-01-08T07:42:50.603Z,1028.8
2018-01-08T07:44:00.572Z,1028.83
2018-01-08T07:45:10.526Z,1028.83
2018-01-08T07:46:20.213Z,1028.88
2018-01-08T07:47:30.344Z,1028.85
2018-01-08T07:48:40.307Z,1028.87
2018-01-08T07:49:50.503Z,1028.89
2018-01-08T07:51:00.208Z,1028.89
2018-01-08T07:52:10.189Z,1028.85
2018-01-08T07:53:20.174Z,1028.89
2018-01-08T07:54:30.147Z,1028.79
2018-01-08T07:55:40.182Z,1028.85
2018-01-08T07:56:49.867Z,1028.89
2018-01-08T07:57:59.572Z,1028.96
2018-01-08T07:59:09.281Z,1028.96
2018-01-08T08:00:19.278Z,1028.99
2018-01-08T08:01:28.970Z,1029.03
2018-01-08T08:02:38.403Z,1029.04
2018-01-08T08:03:47.835Z,1029.04
2018-01-08T08:04:57.807Z,1028.98
2018-01-08T08:06:07.510Z,1029
2018-01-08T08:07:17.196Z,1029
2018-01-08T08:08:27.144Z,1028.96
2018-01-08T08:09:36.852Z,1029.01
2018-01-08T08:10:46.809Z,1029.01
2018-01-08T08:11:56.758Z,1028.99
2018-01-08T08:13:06.749Z,1028.95
2018-01-08T08:14:16.781Z,1028.98
2018-01-08T08:15:26.999Z,1028.97
2018-01-08T08:16:36.681Z,1028.96
2018-01-08T08:17:46.377Z,1028.99
2018-01-08T08:18:56.093Z,1028.99
2018-01-08T08:20:05.864Z,1029
2018-01-08T08:21:15.906Z,1028.97
2018-01-08T08:22:25.658Z,1028.98
2018-01-08T08:23:35.611Z,1028.97
2018-01-08T08:24:45.567Z,1028.92
2018-01-08T08:25:55.516Z,1028.9
2018-01-08T08:27:05.469Z,1028.91
2018-01-08T08:28:15.418Z,1028.94
2018-01-08T08:29:25.377Z,1028.85
2018-01-08T08:30:35.331Z,1028.84
2018-01-08T08:31:45.291Z,1028.82
2018-01-08T08:32:54.781Z,1028.82
2018-01-08T08:34:04.808Z,1028.82
2018-01-08T08:35:14.753Z,1028.81
2018-01-08T08:36:24.711Z,1028.81
2018-01-08T08:37:34.400Z,1028.82
2018-01-08T08:38:44.358Z,1028.83
2018-01-08T08:39:54.313Z,1028.83
2018-01-08T08:41:04.293Z,1028.8
2018-01-08T08:42:14.262Z,1028.83
2018-01-08T08:43:23.955Z,1028.88
2018-01-08T08:44:33.897Z,1028.88
2018-01-08T08:45:43.850Z,1028.9
2018-01-08T08:46:53.300Z,1028.91
2018-01-08T08:48:03.301Z,1028.89
2018-01-08T08:49:13.000Z,1028.89
2018-01-08T08:50:22.965Z,1028.92
2018-01-08T08:51:32.922Z,1028.91
2018-01-08T08:52:42.929Z,1028.93
2018-01-08T08:53:52.874Z,1028.88
2018-01-08T08:55:02.342Z,1028.85
2018-01-08T08:56:12.357Z,1028.88
2018-01-08T08:57:22.321Z,1028.88
2018-01-08T08:58:32.410Z,1028.87
2018-01-08T08:59:42.169Z,1028.8
2018-01-08T09:00:51.620Z,1028.84
2018-01-08T09:02:01.596Z,1028.8
2018-01-08T09:03:11.601Z,1028.83
2018-01-08T09:04:21.312Z,1028.83
2018-01-08T09:05:31.020Z,1028.75
2018-01-08T09:06:40.463Z,1028.74
2018-01-08T09:07:50.198Z,1028.73
2018-01-08T09:08:59.906Z,1028.74
2018-01-08T09:10:09.604Z,1028.75
2018-01-08T09:11:19.561Z,1028.74
2018-01-08T09:12:29.523Z,1028.79
2018-01-08T09:13:39.463Z,1028.84
2018-01-08T09:14:49.414Z,1028.85
2018-01-08T09:15:58.857Z,1028.85
2018-01-08T09:17:08.554Z,1028.92
2018-01-08T09:18:18.530Z,1028.93
2018-01-08T09:19:28.497Z,1028.98
2018-01-08T09:20:38.204Z,1028.95
2018-01-08T09:21:48.177Z,1029
2018-01-08T09:22:57.900Z,1028.96
2018-01-08T09:24:07.878Z,1028.93
2018-01-08T09:25:17.828Z,1028.98
2018-01-08T09:26:27.801Z,1029
2018-01-08T09:27:37.779Z,1028.96
2018-01-08T09:28:47.748Z,1028.99
2018-01-08T09:29:57.461Z,1029
2018-01-08T09:31:06.946Z,1029.04
2018-01-08T09:32:17.010Z,1029.03
2018-01-08T09:33:27.034Z,1028.98
2018-01-08T09:34:36.569Z,1028.98
2018-01-08T09:35:46.066Z,1028.98
2018-01-08T09:36:56.330Z,1028.9
2018-01-08T09:38:05.825Z,1028.9
2018-01-08T09:39:15.821Z,1028.94
2018-01-08T09:40:25.840Z,1028.91
2018-01-08T09:41:35.796Z,1028.95
2018-01-08T09:42:45.555Z,1028.93
2018-01-08T09:43:55.646Z,1028.83
2018-01-08T09:45:05.635Z,1028.8
2018-01-08T09:46:15.365Z,1028.83
2018-01-08T09:47:25.362Z,1028.78
2018-01-08T09:48:35.319Z,1028.8
2018-01-08T09:49:44.759Z,1028.83
2018-01-08T09:50:54.753Z,1028.84
2018-01-08T09:52:04.571Z,1028.84
2018-01-08T09:53:14.047Z,1028.77
2018-01-08T09:54:24.031Z,1028.74
2018-01-08T09:55:33.994Z,1028.76
2018-01-08T09:56:43.944Z,1028.82
2018-01-08T09:57:54.142Z,1028.76
2018-01-08T09:59:04.125Z,1028.77
2018-01-08T10:00:13.831Z,1028.78
2018-01-08T10:01:23.589Z,1028.76
2018-01-08T10:02:33.338Z,1028.79
2018-01-08T10:03:43.304Z,1028.79
2018-01-08T10:04:53.015Z,1028.77
2018-01-08T10:06:03.013Z,1028.76
2018-01-08T10:07:12.765Z,1028.71
2018-01-08T10:08:22.210Z,1028.68
2018-01-08T10:09:32.176Z,1028.74
2018-01-08T10:10:42.131Z,1028.73
2018-01-08T10:11:52.111Z,1028.75
2018-01-08T10:13:01.546Z,1028.72
2018-01-08T10:14:11.287Z,1028.73
2018-01-08T10:15:21.033Z,1028.81
2018-01-08T10:16:30.993Z,1028.74
2018-01-08T10:17:40.965Z,1028.7
2018-01-08T10:18:50.663Z,1028.74
2018-01-08T10:20:00.382Z,1028.73
2018-01-08T10:21:10.335Z,1028.66
2018-01-08T10:22:20.290Z,1028.62
2018-01-08T10:23:30.251Z,1028.57
2018-01-08T10:24:39.730Z,1028.61
2018-01-08T10:25:49.179Z,1028.66
2018-01-08T10:26:59.159Z,1028.61
2018-01-08T10:28:08.875Z,1028.63
2018-01-08T10:29:18.844Z,1028.64
2018-01-08T10:30:28.826Z,1028.6
2018-01-08T10:31:38.794Z,1028.58
2018-01-08T10:32:48.512Z,1028.54
2018-01-08T10:33:58.468Z,1028.57
2018-01-08T10:35:08.440Z,1028.55
2018-01-08T10:36:18.150Z,1028.58
2018-01-08T10:37:28.134Z,1028.58
2018-01-08T10:38:38.106Z,1028.58
2018-01-08T10:39:47.868Z,1028.57
2018-01-08T10:40:57.835Z,1028.52
2018-01-08T10:42:07.823Z,1028.47
2018-01-08T10:43:17.846Z,1028.5
2018-01-08T10:44:27.550Z,1028.51
2018-01-08T10:45:37.262Z,1028.48
2018-01-08T10:46:47.255Z,1028.47
2018-01-08T10:47:57.228Z,1028.55
2018-01-08T10:49:07.202Z,1028.51
2018-01-08T10:50:17.172Z,1028.55
2018-01-08T10:51:26.625Z,1028.48
2018-01-08T10:52:36.591Z,1028.41
2018-01-08T10:53:46.551Z,1028.39
2018-01-08T10:54:56.572Z,1028.4
2018-01-08T10:56:06.268Z,1028.35
2018-01-08T10:57:15.708Z,1028.42
2018-01-08T10:58:25.689Z,1028.33
2018-01-08T10:59:35.675Z,1028.35
2018-01-08T11:00:45.378Z,1028.35
2018-01-08T11:01:55.334Z,1028.29
2018-01-08T11:03:05.315Z,1028.31
2018-01-08T11:04:15.285Z,1028.27
2018-01-08T11:05:25.279Z,1028.26
2018-01-08T11:06:35.251Z,1028.22
2018-01-08T11:07:45.230Z,1028.27
2018-01-08T11:08:55.479Z,1028.22
2018-01-08T11:10:05.468Z,1028.16
2018-01-08T11:11:15.186Z,1028.18
2018-01-08T11:12:25.160Z,1028.18
2018-01-08T11:13:34.873Z,1028.16
2018-01-08T11:14:44.591Z,1028.13
2018-01-08T11:15:54.553Z,1028.11
2018-01-08T11:17:04.264Z,1028.14
2018-01-08T11:18:14.231Z,1028.13
2018-01-08T11:19:24.196Z,1028.15
2018-01-08T11:20:34.165Z,1028.05
2018-01-08T11:21:44.146Z,1028.09
2018-01-08T11:22:54.124Z,1028.08
2018-01-08T11:24:04.096Z,1028.07
2018-01-08T11:25:14.087Z,1028.1
2018-01-08T11:26:23.792Z,1028.07
2018-01-08T11:27:33.806Z,1028.05
2018-01-08T11:28:43.821Z,1027.99
2018-01-08T11:29:53.796Z,1028.05
2018-01-08T11:31:03.765Z,1028.08
2018-01-08T11:32:13.483Z,1028.08
2018-01-08T11:33:23.174Z,1028.02
2018-01-08T11:34:32.915Z,1028.03
2018-01-08T11:35:42.763Z,1027.91
2018-01-08T11:36:52.741Z,1027.96
2018-01-08T11:38:02.710Z,1027.95
2018-01-08T11:39:12.713Z,1027.98
2018-01-08T11:40:22.451Z,1027.95
2018-01-08T11:41:32.427Z,1027.85
2018-01-08T11:42:41.894Z,1027.92
2018-01-08T11:43:51.884Z,1027.86
2018-01-08T11:45:01.665Z,1027.91
2018-01-08T11:46:11.377Z,1027.84
2018-01-08T11:47:21.085Z,1027.82
2018-01-08T11:48:31.114Z,1027.81
2018-01-08T11:49:40.850Z,1027.8
2018-01-08T11:50:50.826Z,1027.88
2018-01-08T11:52:00.805Z,1027.86
2018-01-08T11:53:10.255Z,1027.86
2018-01-08T11:54:20.219Z,1027.84
2018-01-08T11:55:30.171Z,1027.8
2018-01-08T11:56:40.129Z,1027.8
2018-01-08T11:57:49.876Z,1027.81
2018-01-08T11:58:59.902Z,1027.87
2018-01-08T12:00:09.890Z,1027.81
2018-01-08T12:01:19.902Z,1027.76
2018-01-08T12:02:29.883Z,1027.78
2018-01-08T12:03:39.591Z,1027.78
2018-01-08T12:04:49.596Z,1027.76
2018-01-08T12:05:59.321Z,1027.77
2018-01-08T12:07:09.346Z,1027.82
2018-01-08T12:08:19.345Z,1027.78
2018-01-08T12:09:29.064Z,1027.77
2018-01-08T12:10:38.769Z,1027.75
2018-01-08T12:11:48.725Z,1027.76
2018-01-08T12:12:58.677Z,1027.79
2018-01-08T12:14:08.641Z,1027.77
2018-01-08T12:15:18.102Z,1027.78
2018-01-08T12:16:28.096Z,1027.74
2018-01-08T12:17:38.177Z,1027.73
2018-01-08T12:18:48.191Z,1027.66
2018-01-08T12:19:58.456Z,1027.65
2018-01-08T12:21:08.450Z,1027.65
2018-01-08T12:22:18.456Z,1027.66
2018-01-08T12:23:28.180Z,1027.72
2018-01-08T12:24:37.946Z,1027.72
2018-01-08T12:25:48.050Z,1027.69
2018-01-08T12:26:58.057Z,1027.64
2018-01-08T12:28:08.035Z,1027.55
2018-01-08T12:29:17.752Z,1027.58
2018-01-08T12:30:27.743Z,1027.58
2018-01-08T12:31:37.708Z,1027.58
2018-01-08T12:32:47.415Z,1027.57
2018-01-08T12:33:57.122Z,1027.63
2018-01-08T12:35:06.589Z,1027.59
2018-01-08T12:36:16.320Z,1027.66
2018-01-08T12:37:26.060Z,1027.62
2018-01-08T12:38:36.038Z,1027.57
2018-01-08T12:39:45.774Z,1027.57
2018-01-08T12:40:55.488Z,1027.63
2018-01-08T12:42:05.458Z,1027.63
2018-01-08T12:43:15.430Z,1027.59
2018-01-08T12:44:25.419Z,1027.56
2018-01-08T12:45:35.419Z,1027.64
2018-01-08T12:46:45.409Z,1027.56
2018-01-08T12:47:55.398Z,1027.56
2018-01-08T12:49:05.377Z,1027.57
2018-01-08T12:50:15.348Z,1027.5
2018-01-08T12:51:25.337Z,1027.45
2018-01-08T12:52:35.303Z,1027.5
2018-01-08T12:53:45.277Z,1027.42
2018-01-08T12:54:55.026Z,1027.43
2018-01-08T12:56:04.747Z,1027.35
2018-01-08T12:57:14.720Z,1027.39
2018-01-08T12:58:24.495Z,1027.33
2018-01-08T12:59:34.213Z,1027.35
2018-01-08T13:00:44.178Z,1027.46
2018-01-08T13:01:53.927Z,1027.4
2018-01-08T13:03:03.646Z,1027.4
2018-01-08T13:04:13.085Z,1027.36
2018-01-08T13:05:22.828Z,1027.4
2018-01-08T13:06:32.797Z,1027.39
2018-01-08T13:07:42.264Z,1027.41
2018-01-08T13:08:51.987Z,1027.41
2018-01-08T13:10:01.972Z,1027.38
2018-01-08T13:11:11.961Z,1027.38
2018-01-08T13:12:21.929Z,1027.39
2018-01-08T13:13:31.900Z,1027.4
2018-01-08T13:14:41.860Z,1027.5
2018-01-08T13:15:51.582Z,1027.4
2018-01-08T13:17:01.559Z,1027.44
2018-01-08T13:18:11.337Z,1027.4
2018-01-08T13:19:21.293Z,1027.46
2018-01-08T13:20:31.018Z,1027.45
2018-01-08T13:21:41.032Z,1027.49
2018-01-08T13:22:51.018Z,1027.51
2018-01-08T13:24:00.983Z,1027.46
2018-01-08T13:25:10.950Z,1027.48
2018-01-08T13:26:20.913Z,1027.54
2018-01-08T13:27:30.652Z,1027.48
2018-01-08T13:28:40.368Z,1027.48
2018-01-08T13:29:50.353Z,1027.48
2018-01-08T13:31:00.322Z,1027.47
2018-01-08T13:32:10.289Z,1027.44
2018-01-08T13:33:20.259Z,1027.47
2018-01-08T13:34:29.715Z,1027.45
2018-01-08T13:35:39.927Z,1027.42
2018-01-08T13:36:49.909Z,1027.39
2018-01-08T13:37:59.886Z,1027.38
2018-01-08T13:39:09.848Z,1027.47
2018-01-08T13:40:19.818Z,1027.39
2018-01-08T13:41:29.781Z,1027.4
2018-01-08T13:42:39.729Z,1027.4
2018-01-08T13:43:49.179Z,1027.34
2018-01-08T13:44:59.152Z,1027.39
2018-01-08T13:46:09.134Z,1027.39
2018-01-08T13:47:19.115Z,1027.36
2018-01-08T13:48:29.141Z,1027.39
2018-01-08T13:49:39.120Z,1027.39
2018-01-08T13:50:49.304Z,1027.45
2018-01-08T13:51:59.287Z,1027.4
2018-01-08T13:53:09.264Z,1027.39
2018-01-08T13:54:18.993Z,1027.4
2018-01-08T13:55:28.975Z,1027.44
2018-01-08T13:56:38.698Z,1027.43
2018-01-08T13:57:48.682Z,1027.47
2018-01-08T13:58:58.674Z,1027.43
2018-01-08T14:00:08.648Z,1027.51
2018-01-08T14:01:18.627Z,1027.53
2018-01-08T14:02:28.121Z,1027.51
2018-01-08T14:03:38.119Z,1027.48
2018-01-08T14:04:48.098Z,1027.49
2018-01-08T14:05:57.798Z,1027.5
2018-01-08T14:07:07.537Z,1027.47
2018-01-08T14:08:17.530Z,1027.5